Terminal Aerodrome Forecast
Issued by NWS Lake Charles, LA

Home | Current Version | Previous Version | Text Only | Print | Product List | Glossary On
Versions: 1 2 3 4 5 6 7 8 9 10 11 12
000
FTUS44 KLCH 280500
TAFBPT
TAF
KBPT 280520Z 2806/2906 07006KT P6SM SKC
     FM281500 14008KT P6SM SKC
     FM281800 18012G20KT P6SM SCT035
     FM290000 14007KT P6SM SCT035 BKN100=

USA.gov is the U.S. government's official web portal to all federal, state and local government web resources and services.